Time;durP1;ratioP1;P1;durP2;ratioP2;P2;SDS_P1;SDS_P2;PMS_P1;PMS_P2;Temp;Humidity;BMP_temperature;BMP_pressure;BME280_temperature;BME280_humidity;BME280_pressure;Samples;Min_cycle;Max_cycle;Signal;HPM_P1;HPM_P2
2023/10/20 00:00:36;;;;;;;75.05;33.33;;;8.50;99.90;;;;;;7375738;19;20100;-67
2023/10/20 00:03:02;;;;;;;81.53;39.67;;;8.50;99.90;;;;;;7371981;19;20503;-67
2023/10/20 00:05:29;;;;;;;59.00;28.88;;;8.50;99.90;;;;;;7377633;19;20029;-62
2023/10/20 00:07:55;;;;;;;67.07;29.42;;;8.50;99.90;;;;;;7375984;19;20049;-68
2023/10/20 00:10:24;;;;;;;94.05;40.50;;;8.50;99.90;;;;;;7377191;19;20778;-62
2023/10/20 00:12:51;;;;;;;76.43;37.63;;;8.40;99.90;;;;;;7372884;19;20490;-68
2023/10/20 00:15:17;;;;;;;78.85;34.88;;;8.50;99.90;;;;;;7375286;19;20019;-62
2023/10/20 00:17:44;;;;;;;89.90;36.42;;;8.50;99.90;;;;;;7378652;19;20018;-63
2023/10/20 00:20:10;;;;;;;78.85;37.28;;;8.50;99.90;;;;;;7378228;19;20026;-67
2023/10/20 00:22:36;;;;;;;101.28;42.70;;;8.50;99.90;;;;;;7385693;19;20018;-62
2023/10/20 00:25:04;;;;;;;82.38;38.28;;;8.50;99.90;;;;;;7380273;19;20019;-62
2023/10/20 00:27:30;;;;;;;70.78;31.20;;;8.50;99.90;;;;;;7374824;19;20022;-62
2023/10/20 00:29:57;;;;;;;74.63;30.00;;;8.40;99.90;;;;;;7382627;19;20043;-63
2023/10/20 00:32:24;;;;;;;84.03;36.40;;;8.40;99.90;;;;;;7374725;19;20029;-61
2023/10/20 00:34:50;;;;;;;84.68;36.15;;;8.40;99.90;;;;;;7382960;19;20022;-61
2023/10/20 00:37:16;;;;;;;38.25;19.98;;;8.40;99.90;;;;;;7381622;19;20046;-62
2023/10/20 00:39:43;;;;;;;95.15;40.50;;;8.40;99.90;;;;;;7386619;19;20021;-61
2023/10/20 00:42:09;;;;;;;82.95;33.05;;;8.40;99.90;;;;;;7380866;19;20479;-62
2023/10/20 00:44:36;;;;;;;89.43;38.13;;;8.40;99.90;;;;;;7369884;19;20817;-69
2023/10/20 00:47:03;;;;;;;93.47;41.70;;;8.40;99.90;;;;;;7372417;19;20019;-68
2023/10/20 00:49:30;;;;;;;94.95;40.95;;;8.40;99.90;;;;;;7367676;19;20031;-68
2023/10/20 00:51:56;;;;;;;96.15;39.03;;;8.40;99.90;;;;;;7368421;19;20019;-62
2023/10/20 00:54:23;;;;;;;100.80;42.15;;;8.40;99.90;;;;;;7381804;19;20007;-61
2023/10/20 00:56:52;;;;;;;98.00;41.03;;;8.40;99.90;;;;;;7381849;19;20046;-61
2023/10/20 00:59:20;;;;;;;99.13;40.67;;;8.40;99.90;;;;;;7372076;19;20049;-67
2023/10/20 01:01:47;;;;;;;90.57;37.70;;;8.40;99.90;;;;;;7369669;19;20031;-67
2023/10/20 01:04:13;;;;;;;97.53;40.67;;;8.40;99.90;;;;;;7367182;19;20022;-67
2023/10/20 01:06:40;;;;;;;90.03;38.58;;;8.30;99.90;;;;;;7372352;19;20026;-69
2023/10/20 01:09:10;;;;;;;76.70;31.55;;;8.40;99.90;;;;;;7367312;19;20038;-69
2023/10/20 01:11:38;;;;;;;91.45;36.13;;;8.30;99.90;;;;;;7362370;19;20074;-69
2023/10/20 01:14:04;;;;;;;105.25;41.17;;;8.40;99.90;;;;;;7366150;19;20842;-69
2023/10/20 01:16:32;;;;;;;99.72;37.85;;;8.30;99.90;;;;;;7370682;19;20018;-69
2023/10/20 01:19:00;;;;;;;87.65;34.85;;;8.30;99.90;;;;;;7374152;19;20022;-63
2023/10/20 01:21:26;;;;;;;93.55;37.58;;;8.30;99.90;;;;;;7381041;19;20056;-62
2023/10/20 01:23:54;;;;;;;98.28;39.13;;;8.30;99.90;;;;;;7378603;19;20053;-62
2023/10/20 01:26:21;;;;;;;108.75;41.90;;;8.30;99.90;;;;;;7379394;19;20041;-62
2023/10/20 01:28:47;;;;;;;99.90;37.47;;;8.30;99.90;;;;;;7378750;19;20015;-68
2023/10/20 01:31:13;;;;;;;98.45;40.38;;;8.30;99.90;;;;;;7373804;19;20470;-69
2023/10/20 01:33:39;;;;;;;110.97;42.40;;;8.30;99.90;;;;;;7369857;19;20448;-69
2023/10/20 01:36:06;;;;;;;79.95;30.77;;;8.30;99.90;;;;;;7369937;19;20111;-69
2023/10/20 01:38:32;;;;;;;105.70;41.90;;;8.30;99.90;;;;;;7371679;19;20018;-69
2023/10/20 01:40:58;;;;;;;81.90;29.40;;;8.30;99.90;;;;;;7378294;19;20022;-62
2023/10/20 01:43:25;;;;;;;108.95;43.95;;;8.30;99.90;;;;;;7381891;19;20545;-62
2023/10/20 01:45:51;;;;;;;88.90;38.03;;;8.30;99.90;;;;;;7380967;19;20046;-62
2023/10/20 01:48:17;;;;;;;101.82;39.60;;;8.30;99.90;;;;;;7380115;19;20014;-62
2023/10/20 01:50:44;;;;;;;103.82;43.22;;;8.30;99.90;;;;;;7381146;19;20030;-62
2023/10/20 01:53:10;;;;;;;113.10;40.22;;;8.30;99.90;;;;;;7377924;19;20034;-62
2023/10/20 01:55:39;;;;;;;102.20;38.75;;;8.30;99.90;;;;;;7379317;19;20374;-62
2023/10/20 01:58:06;;;;;;;103.75;39.50;;;8.20;99.90;;;;;;7378156;19;20670;-62
2023/10/20 02:00:32;;;;;;;95.72;39.83;;;8.30;99.90;;;;;;7379834;19;20018;-61
2023/10/20 02:02:59;;;;;;;89.18;35.78;;;8.20;99.90;;;;;;7382029;19;20019;-61
2023/10/20 02:05:25;;;;;;;119.00;41.63;;;8.30;99.90;;;;;;7379332;19;20015;-61
2023/10/20 02:07:51;;;;;;;93.05;34.67;;;8.30;99.90;;;;;;7380249;19;20815;-61
2023/10/20 02:10:17;;;;;;;99.15;38.38;;;8.30;99.90;;;;;;7377697;19;20015;-61
2023/10/20 02:12:44;;;;;;;72.88;31.17;;;8.30;99.90;;;;;;7374606;19;20014;-61
2023/10/20 02:15:14;;;;;;;100.00;37.13;;;8.20;99.90;;;;;;7375933;19;20018;-62
2023/10/20 02:17:41;;;;;;;100.22;37.97;;;8.30;99.90;;;;;;7379202;19;20086;-61
2023/10/20 02:20:08;;;;;;;90.57;34.15;;;8.20;99.90;;;;;;7377365;19;20022;-62
2023/10/20 02:22:34;;;;;;;92.43;37.97;;;8.20;99.90;;;;;;7378430;19;20035;-61
2023/10/20 02:25:01;;;;;;;102.88;37.22;;;8.20;99.90;;;;;;7375299;19;20015;-62
2023/10/20 02:27:28;;;;;;;97.18;42.15;;;8.20;99.90;;;;;;7380477;19;20815;-61
2023/10/20 02:29:56;;;;;;;100.05;40.00;;;8.20;99.90;;;;;;7377197;19;20019;-61
2023/10/20 02:32:22;;;;;;;88.95;34.75;;;8.20;99.90;;;;;;7376461;19;20741;-62
2023/10/20 02:34:48;;;;;;;77.53;34.67;;;8.20;99.90;;;;;;7376574;19;20015;-61
2023/10/20 02:37:15;;;;;;;74.15;34.38;;;8.20;99.90;;;;;;7377328;19;20042;-62
2023/10/20 02:39:41;;;;;;;82.53;34.90;;;8.30;99.90;;;;;;7378929;19;20018;-62
2023/10/20 02:42:07;;;;;;;90.55;38.65;;;8.20;99.90;;;;;;7378071;19;20023;-62
2023/10/20 02:44:34;;;;;;;82.20;37.00;;;8.20;99.90;;;;;;7377257;19;20871;-62
2023/10/20 02:47:01;;;;;;;78.32;34.80;;;8.20;99.90;;;;;;7373626;19;20022;-62
2023/10/20 02:49:27;;;;;;;81.28;34.72;;;8.30;99.90;;;;;;7378718;19;20078;-62
2023/10/20 02:51:53;;;;;;;86.32;38.40;;;8.20;99.90;;;;;;7376317;19;20428;-62
2023/10/20 02:54:20;;;;;;;87.20;37.67;;;8.20;99.90;;;;;;7373903;19;20018;-61
2023/10/20 02:56:46;;;;;;;81.82;35.95;;;8.20;99.90;;;;;;7377157;19;20801;-61
2023/10/20 02:59:14;;;;;;;91.53;38.05;;;8.20;99.90;;;;;;7375788;19;20105;-62
2023/10/20 03:01:41;;;;;;;84.57;38.88;;;8.20;99.90;;;;;;7370195;19;20094;-69
2023/10/20 03:04:07;;;;;;;77.47;33.85;;;8.20;99.90;;;;;;7363851;19;20022;-68
2023/10/20 03:06:33;;;;;;;68.32;30.92;;;8.20;99.90;;;;;;7368472;19;20387;-69
2023/10/20 03:09:00;;;;;;;78.15;36.13;;;8.20;99.90;;;;;;7365831;19;20018;-69
2023/10/20 03:11:26;;;;;;;67.55;34.42;;;8.20;99.90;;;;;;7371710;19;20101;-62
2023/10/20 03:13:53;;;;;;;65.28;29.52;;;8.20;99.90;;;;;;7376380;19;20022;-62
2023/10/20 03:16:21;;;;;;;72.68;36.67;;;8.10;99.90;;;;;;7375397;19;20029;-63
2023/10/20 03:18:48;;;;;;;65.82;32.22;;;8.20;99.90;;;;;;7377390;19;20017;-61
2023/10/20 03:21:15;;;;;;;66.63;33.47;;;8.10;99.90;;;;;;7376200;19;20807;-61
2023/10/20 03:23:43;;;;;;;68.05;32.97;;;8.10;99.90;;;;;;7374703;19;20113;-61
2023/10/20 03:26:13;;;;;;;63.60;32.40;;;8.10;99.90;;;;;;7374173;19;20020;-63
2023/10/20 03:28:40;;;;;;;71.15;33.70;;;8.10;99.90;;;;;;7378351;19;20059;-62
2023/10/20 03:31:07;;;;;;;57.53;28.40;;;8.10;99.90;;;;;;7378951;19;20054;-62
2023/10/20 03:33:33;;;;;;;57.22;30.10;;;8.10;99.90;;;;;;7381521;19;20038;-62
2023/10/20 03:36:01;;;;;;;67.28;31.98;;;8.10;99.90;;;;;;7382052;19;20018;-62
2023/10/20 03:38:28;;;;;;;61.30;27.60;;;8.10;99.90;;;;;;7381675;19;20018;-62
2023/10/20 03:41:07;;;;;;;57.50;27.33;;;8.10;99.90;;;;;;7383779;19;20017;-62
2023/10/20 03:43:35;;;;;;;65.22;31.42;;;8.20;99.90;;;;;;7385969;19;20437;-61
2023/10/20 03:46:03;;;;;;;66.38;31.92;;;8.10;99.90;;;;;;7379785;19;20032;-61
2023/10/20 03:48:33;;;;;;;61.97;30.52;;;8.10;99.90;;;;;;7381417;19;20363;-61
2023/10/20 03:50:59;;;;;;;60.58;28.65;;;8.10;99.90;;;;;;7381754;19;20029;-62
2023/10/20 03:53:33;;;;;;;56.38;27.60;;;8.10;99.90;;;;;;7383860;19;20022;-62
2023/10/20 03:56:07;;;;;;;61.33;30.67;;;8.10;99.90;;;;;;7381745;19;20039;-61
2023/10/20 03:58:35;;;;;;;52.55;26.17;;;8.10;99.90;;;;;;7384545;19;20823;-62
2023/10/20 04:01:02;;;;;;;58.08;30.20;;;8.10;99.90;;;;;;7379058;19;20074;-62
2023/10/20 04:03:32;;;;;;;61.25;32.00;;;8.10;99.90;;;;;;7384793;19;20019;-62
2023/10/20 04:06:02;;;;;;;49.45;25.40;;;8.10;99.90;;;;;;7379454;19;20025;-62
2023/10/20 04:08:28;;;;;;;44.17;22.20;;;8.10;99.90;;;;;;7380519;19;20029;-62
2023/10/20 04:10:59;;;;;;;60.55;29.13;;;8.10;99.90;;;;;;7379118;19;20407;-62
2023/10/20 04:13:25;;;;;;;60.55;30.95;;;8.10;99.90;;;;;;7377586;19;20025;-62
2023/10/20 04:15:52;;;;;;;62.72;31.77;;;8.10;99.90;;;;;;7380948;19;20014;-61
2023/10/20 04:18:20;;;;;;;64.47;33.88;;;8.10;99.90;;;;;;7378207;19;21861;-62
2023/10/20 04:20:48;;;;;;;59.58;29.13;;;8.10;99.90;;;;;;7380046;19;20054;-61
2023/10/20 04:23:16;;;;;;;64.88;30.85;;;8.10;99.90;;;;;;7378809;19;20488;-61
2023/10/20 04:25:52;;;;;;;64.75;31.27;;;8.10;99.90;;;;;;7382561;19;20018;-61
2023/10/20 04:28:35;;;;;;;64.63;30.40;;;8.10;99.90;;;;;;7371043;19;20019;-69
2023/10/20 04:52:57;;;;;;;59.53;26.65;;;8.00;99.90;;;;;;7367077;19;20028;-68
2023/10/20 04:57:57;;;;;;;52.38;27.73;;;8.00;99.90;;;;;;7380721;19;20022;-61
2023/10/20 05:06:10;;;;;;;38.35;20.00;;;8.00;99.90;;;;;;7378727;19;20817;-61
2023/10/20 05:08:23;;;;;;;53.33;31.98;;;8.00;99.90;;;;;;7377904;19;20030;-61
2023/10/20 05:10:50;;;;;;;55.53;29.85;;;8.00;99.90;;;;;;7375915;19;20064;-68
2023/10/20 05:13:17;;;;;;;41.75;23.65;;;8.00;99.90;;;;;;7365763;19;20078;-69
2023/10/20 05:15:44;;;;;;;40.85;23.63;;;8.00;99.90;;;;;;7371691;19;20022;-69
2023/10/20 05:18:11;;;;;;;30.52;18.65;;;8.00;99.90;;;;;;7369411;19;20015;-69
2023/10/20 05:20:41;;;;;;;45.90;25.50;;;8.00;99.90;;;;;;7370459;19;20010;-69
2023/10/20 05:23:09;;;;;;;43.05;27.13;;;8.00;99.90;;;;;;7372548;19;20021;-65
2023/10/20 05:25:35;;;;;;;42.20;23.58;;;8.20;99.90;;;;;;7380781;19;20019;-66
2023/10/20 05:28:01;;;;;;;43.00;24.75;;;8.20;99.90;;;;;;7370420;19;20042;-67
2023/10/20 05:30:28;;;;;;;37.22;24.65;;;8.20;99.90;;;;;;7375813;19;20015;-66
2023/10/20 05:32:54;;;;;;;39.30;21.45;;;8.30;99.90;;;;;;7371993;19;20909;-66
2023/10/20 05:35:21;;;;;;;39.67;25.55;;;8.30;99.90;;;;;;7368105;19;20026;-65
2023/10/20 05:37:47;;;;;;;38.03;23.77;;;8.30;99.90;;;;;;7369185;19;20043;-65
2023/10/20 05:40:13;;;;;;;31.90;23.00;;;8.20;99.90;;;;;;7369795;19;20690;-65
2023/10/20 05:42:39;;;;;;;38.45;25.20;;;8.30;99.90;;;;;;7373591;19;20019;-66
2023/10/20 05:45:39;;;;;;;37.33;24.02;;;8.30;99.90;;;;;;7369931;19;20015;-66
2023/10/20 05:48:01;;;;;;;31.65;20.63;;;8.20;99.90;;;;;;7372395;19;20018;-66
2023/10/20 05:50:27;;;;;;;37.60;23.20;;;8.30;99.90;;;;;;7368753;19;20510;-65
2023/10/20 05:52:54;;;;;;;74.95;63.17;;;8.30;99.90;;;;;;7369974;19;20776;-64
2023/10/20 05:55:20;;;;;;;91.97;67.43;;;8.40;99.90;;;;;;7367579;19;20018;-65
2023/10/20 05:57:47;;;;;;;35.17;20.80;;;8.30;99.90;;;;;;7372668;19;20657;-64
2023/10/20 06:00:15;;;;;;;37.45;20.90;;;8.30;99.90;;;;;;7369215;19;20027;-64
2023/10/20 06:02:43;;;;;;;40.50;28.88;;;8.30;99.90;;;;;;7375425;19;20705;-64
2023/10/20 06:05:09;;;;;;;36.03;27.67;;;8.30;99.90;;;;;;7372011;19;20175;-65
2023/10/20 06:07:35;;;;;;;35.40;26.20;;;8.30;99.90;;;;;;7374068;19;20019;-65
2023/10/20 06:10:03;;;;;;;32.78;21.00;;;8.30;99.90;;;;;;7380142;19;20018;-67
2023/10/20 06:12:29;;;;;;;30.83;22.70;;;8.20;99.90;;;;;;7375542;19;20114;-65
2023/10/20 06:14:56;;;;;;;30.23;20.58;;;8.30;99.90;;;;;;7373857;19;20042;-65
2023/10/20 06:17:23;;;;;;;26.90;18.48;;;8.30;99.90;;;;;;7371407;19;20344;-65
2023/10/20 06:19:50;;;;;;;25.40;17.60;;;8.20;99.90;;;;;;7369325;19;20053;-69
2023/10/20 06:22:17;;;;;;;64.70;48.20;;;8.20;99.90;;;;;;7367663;19;20018;-67
2023/10/20 06:24:47;;;;;;;55.67;40.13;;;8.10;99.90;;;;;;7368044;19;20772;-67
2023/10/20 06:27:13;;;;;;;40.65;25.63;;;8.10;99.90;;;;;;7367306;19;20018;-68
2023/10/20 06:29:47;;;;;;;39.30;28.35;;;8.00;99.90;;;;;;7366082;19;20064;-68
2023/10/20 06:32:42;;;;;;;24.17;15.73;;;8.00;99.90;;;;;;7363240;19;20383;-68
2023/10/20 06:35:00;;;;;;;56.10;38.72;;;8.00;99.90;;;;;;7365581;19;20023;-68
2023/10/20 06:40:15;;;;;;;37.45;25.63;;;7.90;99.90;;;;;;7362454;19;20029;-67
2023/10/20 06:42:43;;;;;;;22.75;12.98;;;7.90;99.90;;;;;;7368212;19;20398;-67
2023/10/20 06:45:11;;;;;;;29.15;18.23;;;7.90;99.90;;;;;;7369247;19;20022;-62
2023/10/20 06:47:39;;;;;;;31.38;22.02;;;7.90;99.90;;;;;;7371779;19;20082;-61
2023/10/20 06:50:07;;;;;;;30.20;21.55;;;7.90;99.90;;;;;;7369501;19;20019;-61
2023/10/20 06:52:35;;;;;;;30.67;23.33;;;7.90;99.90;;;;;;7371570;19;20015;-62
2023/10/20 06:55:03;;;;;;;23.85;16.45;;;7.90;99.90;;;;;;7375197;19;20106;-61
2023/10/20 06:57:30;;;;;;;48.47;34.88;;;7.90;99.90;;;;;;7373074;19;20034;-61
2023/10/20 06:59:56;;;;;;;20.30;14.98;;;7.90;99.90;;;;;;7369653;19;20018;-61
2023/10/20 07:02:22;;;;;;;22.67;17.33;;;7.90;99.90;;;;;;7368213;19;20019;-67
2023/10/20 07:04:48;;;;;;;42.10;31.02;;;7.90;99.90;;;;;;7369448;19;20070;-62
2023/10/20 07:07:17;;;;;;;29.05;20.42;;;7.90;99.90;;;;;;7373088;19;20022;-67
2023/10/20 07:09:45;;;;;;;32.25;22.02;;;7.90;99.90;;;;;;7375944;19;20018;-67
2023/10/20 07:12:12;;;;;;;26.40;18.95;;;7.90;99.90;;;;;;7366848;19;20021;-67
2023/10/20 07:14:38;;;;;;;19.75;14.52;;;7.90;99.90;;;;;;7371538;19;20018;-66
2023/10/20 07:17:06;;;;;;;24.23;16.80;;;7.90;99.90;;;;;;7377785;19;20015;-67
2023/10/20 07:19:35;;;;;;;35.00;25.70;;;7.90;99.90;;;;;;7372893;19;20022;-66
2023/10/20 07:22:03;;;;;;;24.77;18.65;;;8.00;99.90;;;;;;7374751;19;20022;-67
2023/10/20 07:24:30;;;;;;;71.95;53.45;;;7.90;99.90;;;;;;7378010;19;20018;-62
2023/10/20 07:26:56;;;;;;;13.38;9.68;;;7.90;99.90;;;;;;7378953;19;20018;-67
2023/10/20 07:29:23;;;;;;;30.05;21.27;;;8.00;99.90;;;;;;7375484;19;20019;-67
2023/10/20 07:31:52;;;;;;;21.55;16.10;;;7.90;99.90;;;;;;7376287;19;20352;-61
2023/10/20 07:34:18;;;;;;;27.77;19.08;;;7.90;99.90;;;;;;7379863;19;20040;-62
2023/10/20 07:36:45;;;;;;;34.20;25.58;;;7.90;99.90;;;;;;7378404;19;20034;-61
2023/10/20 07:39:16;;;;;;;58.47;44.17;;;8.00;99.90;;;;;;7378240;19;20018;-62
2023/10/20 07:41:45;;;;;;;23.85;16.85;;;7.90;99.90;;;;;;7378449;19;20074;-62
2023/10/20 07:44:12;;;;;;;24.50;18.73;;;7.90;99.90;;;;;;7378636;19;20014;-63
2023/10/20 07:46:41;;;;;;;40.95;31.15;;;7.90;99.90;;;;;;7377413;19;20752;-62
2023/10/20 07:49:11;;;;;;;42.65;33.58;;;7.90;99.90;;;;;;7380633;19;20052;-62
2023/10/20 07:51:39;;;;;;;40.85;30.50;;;7.90;99.90;;;;;;7378811;19;20515;-62
2023/10/20 07:54:07;;;;;;;30.33;23.42;;;7.90;99.90;;;;;;7382983;19;20022;-62
2023/10/20 07:56:33;;;;;;;23.48;20.13;;;7.90;99.90;;;;;;7377067;19;20026;-62
2023/10/20 07:59:00;;;;;;;42.58;32.47;;;7.90;99.90;;;;;;7378835;19;20726;-62
2023/10/20 08:01:26;;;;;;;17.13;12.30;;;7.90;99.90;;;;;;7376304;19;20018;-70
2023/10/20 08:03:53;;;;;;;17.17;11.10;;;7.90;99.90;;;;;;7374111;19;20042;-69
2023/10/20 08:06:20;;;;;;;24.88;18.90;;;7.90;99.90;;;;;;7371808;19;20078;-63
2023/10/20 08:08:46;;;;;;;13.85;11.68;;;7.90;99.90;;;;;;7379608;19;20018;-63
2023/10/20 08:11:12;;;;;;;20.40;16.10;;;7.90;99.90;;;;;;7371693;19;20015;-64
2023/10/20 08:13:38;;;;;;;37.15;28.27;;;7.90;99.90;;;;;;7377735;19;20052;-63
2023/10/20 08:16:06;;;;;;;15.45;12.88;;;7.90;99.90;;;;;;7377212;19;20744;-63
2023/10/20 08:18:34;;;;;;;19.75;14.82;;;7.90;99.90;;;;;;7376636;19;20045;-63
2023/10/20 08:21:08;;;;;;;11.30;8.82;;;7.90;99.90;;;;;;7380470;19;20022;-63
2023/10/20 08:23:37;;;;;;;13.52;7.40;;;7.90;99.90;;;;;;7380352;19;20466;-63
2023/10/20 08:26:13;;;;;;;11.15;7.68;;;7.90;99.90;;;;;;7386040;19;20035;-63
2023/10/20 08:28:39;;;;;;;24.83;20.38;;;7.90;99.90;;;;;;7384844;19;20022;-62
2023/10/20 08:31:13;;;;;;;17.50;14.60;;;7.90;99.90;;;;;;7373059;19;20883;-69
2023/10/20 08:33:40;;;;;;;9.90;8.57;;;7.90;99.90;;;;;;7369694;19;20030;-67
2023/10/20 08:36:20;;;;;;;9.38;6.25;;;7.90;99.90;;;;;;7370967;19;20010;-68
2023/10/20 08:38:49;;;;;;;14.93;10.93;;;7.90;99.90;;;;;;7373277;19;22317;-69
2023/10/20 08:41:24;;;;;;;18.90;14.07;;;7.90;99.90;;;;;;7369735;19;20125;-63
2023/10/20 08:43:51;;;;;;;5.82;4.68;;;7.80;99.90;;;;;;7381043;19;20022;-63
2023/10/20 08:46:19;;;;;;;11.23;8.82;;;7.90;99.90;;;;;;7377527;19;20026;-62
2023/10/20 08:48:47;;;;;;;10.40;7.20;;;7.80;99.90;;;;;;7377341;19;20025;-62
2023/10/20 08:51:16;;;;;;;9.38;6.40;;;7.80;99.90;;;;;;7375488;19;20050;-62
2023/10/20 08:53:42;;;;;;;8.95;6.15;;;7.80;99.90;;;;;;7376788;19;20038;-62
2023/10/20 08:56:11;;;;;;;15.52;13.15;;;7.80;99.90;;;;;;7379275;19;20052;-62
2023/10/20 08:58:37;;;;;;;10.77;6.85;;;7.70;99.90;;;;;;7379548;19;20025;-69
2023/10/20 09:01:07;;;;;;;10.98;8.70;;;7.80;99.90;;;;;;7369460;19;20018;-69
2023/10/20 09:03:44;;;;;;;17.48;12.98;;;7.70;99.90;;;;;;7375316;19;20057;-66
2023/10/20 09:06:14;;;;;;;9.50;6.30;;;7.70;99.90;;;;;;7370916;19;20470;-68
2023/10/20 09:08:47;;;;;;;9.27;7.40;;;7.70;99.90;;;;;;7375554;19;20018;-69
2023/10/20 09:11:13;;;;;;;8.20;7.38;;;7.70;99.90;;;;;;7371164;19;20018;-69
2023/10/20 09:13:43;;;;;;;7.05;5.38;;;7.70;99.90;;;;;;7371985;19;20018;-69
2023/10/20 09:16:12;;;;;;;8.60;6.50;;;7.60;99.90;;;;;;7370473;19;20006;-69
2023/10/20 09:18:51;;;;;;;15.43;11.55;;;7.70;99.90;;;;;;7375039;19;20102;-67
2023/10/20 09:21:20;;;;;;;7.25;6.40;;;7.70;99.90;;;;;;7369269;19;20042;-69
2023/10/20 09:24:05;;;;;;;20.80;14.20;;;7.70;99.90;;;;;;7373499;19;20094;-70
2023/10/20 09:26:36;;;;;;;11.00;8.55;;;7.70;99.90;;;;;;7372020;19;20027;-69
2023/10/20 09:29:07;;;;;;;5.25;3.53;;;7.70;99.90;;;;;;7370693;19;20026;-70
2023/10/20 09:31:35;;;;;;;8.77;7.88;;;7.70;99.90;;;;;;7375832;19;20376;-69
2023/10/20 09:34:02;;;;;;;5.18;3.35;;;7.70;99.90;;;;;;7372046;19;20019;-70
2023/10/20 09:36:32;;;;;;;7.85;3.28;;;7.60;99.90;;;;;;7371706;19;20021;-70
2023/10/20 09:39:00;;;;;;;6.80;4.50;;;7.60;99.90;;;;;;7373967;19;20131;-70
2023/10/20 09:41:28;;;;;;;12.00;9.90;;;7.60;99.90;;;;;;7371088;19;20015;-70
2023/10/20 09:44:06;;;;;;;12.05;10.02;;;7.60;99.90;;;;;;7370733;19;20051;-70
2023/10/20 09:46:48;;;;;;;12.90;9.52;;;7.60;99.90;;;;;;7372018;19;20026;-70
2023/10/20 09:49:19;;;;;;;12.13;9.07;;;7.60;99.90;;;;;;7365623;19;20018;-71
2023/10/20 09:51:50;;;;;;;9.07;6.97;;;7.60;99.90;;;;;;7372554;19;20025;-70
2023/10/20 09:54:21;;;;;;;3.75;2.65;;;7.60;99.90;;;;;;7369189;19;20015;-70
2023/10/20 09:56:49;;;;;;;6.95;4.78;;;7.60;99.90;;;;;;7368391;19;20382;-72
2023/10/20 09:59:26;;;;;;;16.23;12.93;;;7.60;99.90;;;;;;7369719;19;20035;-70
2023/10/20 10:01:53;;;;;;;7.03;5.13;;;7.70;99.90;;;;;;7374272;19;20781;-69
2023/10/20 10:04:33;;;;;;;9.65;7.47;;;7.60;99.90;;;;;;7368715;19;20026;-70
2023/10/20 10:07:12;;;;;;;16.88;13.50;;;7.60;99.90;;;;;;7371914;19;20010;-69
2023/10/20 10:09:43;;;;;;;6.40;4.70;;;7.60;99.90;;;;;;7369756;19;20019;-69
2023/10/20 10:12:10;;;;;;;3.63;2.58;;;7.60;99.90;;;;;;7370722;19;20504;-70
2023/10/20 10:14:37;;;;;;;6.53;5.05;;;7.50;99.90;;;;;;7368626;19;20026;-69
2023/10/20 10:17:09;;;;;;;7.65;6.13;;;7.50;99.90;;;;;;7373933;19;20153;-64
2023/10/20 10:19:52;;;;;;;4.05;2.92;;;7.50;99.90;;;;;;7377511;19;20019;-69
2023/10/20 10:22:29;;;;;;;9.32;7.60;;;7.50;99.90;;;;;;7370631;19;20102;-69
2023/10/20 10:25:00;;;;;;;4.95;3.40;;;7.50;99.90;;;;;;7373704;19;20035;-68
2023/10/20 10:27:28;;;;;;;12.70;10.15;;;7.50;99.90;;;;;;7367395;19;20495;-69
2023/10/20 10:30:05;;;;;;;2.78;1.98;;;7.50;99.90;;;;;;7369918;19;20018;-69
2023/10/20 10:32:33;;;;;;;3.78;2.38;;;7.50;99.90;;;;;;7363023;19;20133;-68
2023/10/20 10:35:03;;;;;;;3.10;2.58;;;7.40;99.90;;;;;;7376875;19;20082;-63
2023/10/20 10:37:35;;;;;;;7.68;4.65;;;7.50;99.90;;;;;;7368505;19;20014;-69
2023/10/20 10:40:13;;;;;;;5.13;3.88;;;7.50;99.90;;;;;;7370252;19;20018;-69
2023/10/20 10:42:45;;;;;;;2.88;2.53;;;7.50;99.90;;;;;;7379790;19;20022;-69
2023/10/20 10:45:23;;;;;;;4.20;3.25;;;7.50;99.90;;;;;;7376629;19;20018;-69
2023/10/20 10:47:50;;;;;;;12.82;10.57;;;7.50;99.90;;;;;;7375622;19;20026;-69
2023/10/20 10:50:20;;;;;;;6.63;4.70;;;7.50;99.90;;;;;;7379792;19;20041;-71
2023/10/20 10:52:47;;;;;;;7.07;5.28;;;7.50;99.90;;;;;;7375587;19;20010;-69
2023/10/20 10:55:13;;;;;;;2.55;1.83;;;7.50;99.90;;;;;;7379614;19;20022;-69
2023/10/20 10:57:41;;;;;;;4.50;3.17;;;7.50;99.90;;;;;;7373641;19;20015;-70
2023/10/20 11:00:08;;;;;;;3.00;2.38;;;7.40;99.90;;;;;;7377731;19;20888;-70
2023/10/20 11:02:35;;;;;;;2.72;1.55;;;7.40;99.90;;;;;;7372380;19;20403;-70
2023/10/20 11:05:03;;;;;;;5.45;4.03;;;7.40;99.90;;;;;;7376387;19;20029;-71
2023/10/20 11:07:31;;;;;;;1.65;1.52;;;7.40;99.90;;;;;;7378109;19;20022;-65
2023/10/20 11:09:57;;;;;;;9.95;8.00;;;7.40;99.90;;;;;;7380290;19;20021;-64
2023/10/20 11:12:23;;;;;;;3.95;3.10;;;7.40;99.90;;;;;;7375122;19;20014;-64
2023/10/20 11:14:50;;;;;;;10.35;8.15;;;7.40;99.90;;;;;;7383149;19;20022;-64
2023/10/20 11:17:17;;;;;;;4.80;3.50;;;7.40;99.90;;;;;;7380237;19;20078;-65
2023/10/20 11:19:44;;;;;;;2.38;1.80;;;7.40;99.90;;;;;;7378763;19;20018;-65
2023/10/20 11:22:17;;;;;;;4.90;3.67;;;7.40;99.90;;;;;;7378382;19;20022;-71
2023/10/20 11:24:52;;;;;;;4.03;3.25;;;7.40;99.90;;;;;;7376404;19;20026;-70
2023/10/20 11:27:22;;;;;;;2.50;1.88;;;7.40;99.90;;;;;;7378552;19;20396;-69
2023/10/20 11:29:50;;;;;;;2.17;1.58;;;7.40;99.90;;;;;;7378473;19;20364;-63
2023/10/20 11:32:18;;;;;;;3.10;2.20;;;7.40;99.90;;;;;;7377650;19;20029;-64
2023/10/20 11:34:45;;;;;;;3.70;3.05;;;7.40;99.90;;;;;;7375501;19;20018;-71
2023/10/20 11:37:12;;;;;;;8.05;5.18;;;7.40;99.90;;;;;;7380783;19;20010;-64
2023/10/20 11:39:39;;;;;;;2.83;1.67;;;7.40;99.90;;;;;;7382566;19;20006;-64
2023/10/20 11:42:06;;;;;;;8.52;5.53;;;7.30;99.90;;;;;;7383456;19;20018;-65
2023/10/20 11:44:32;;;;;;;6.03;4.50;;;7.30;99.90;;;;;;7378861;19;20045;-72
2023/10/20 11:46:58;;;;;;;1.80;1.30;;;7.30;99.90;;;;;;7378350;19;20059;-65
2023/10/20 11:49:25;;;;;;;4.70;3.10;;;7.30;99.90;;;;;;7381628;19;20018;-65
2023/10/20 11:51:51;;;;;;;41.70;17.95;;;7.30;99.90;;;;;;7371493;19;20051;-65
2023/10/20 11:54:18;;;;;;;16.50;12.77;;;7.30;99.90;;;;;;7377626;19;20015;-72
2023/10/20 11:56:45;;;;;;;2.50;1.83;;;7.30;99.90;;;;;;7375372;19;20357;-72
2023/10/20 11:59:15;;;;;;;2.80;2.13;;;7.30;99.90;;;;;;7375432;19;20022;-71
2023/10/20 12:01:43;;;;;;;10.60;7.32;;;7.30;99.90;;;;;;7374894;19;20039;-64
2023/10/20 12:04:10;;;;;;;4.35;2.20;;;7.30;99.90;;;;;;7378114;19;20019;-65
2023/10/20 12:06:37;;;;;;;1.98;1.52;;;7.40;99.90;;;;;;7373299;19;20026;-65
2023/10/20 12:09:16;;;;;;;11.27;8.18;;;7.40;99.90;;;;;;7376786;19;20015;-66
2023/10/20 12:11:43;;;;;;;2.42;1.52;;;7.40;99.90;;;;;;7373849;19;20022;-64
2023/10/20 12:14:09;;;;;;;4.22;2.50;;;7.30;99.90;;;;;;7375397;19;20014;-66
2023/10/20 12:16:35;;;;;;;2.30;1.75;;;7.30;99.90;;;;;;7376604;19;20523;-66
2023/10/20 12:19:02;;;;;;;17.67;14.10;;;7.30;99.90;;;;;;7376791;19;20512;-72
2023/10/20 12:21:29;;;;;;;9.00;6.93;;;7.30;99.90;;;;;;7376733;19;20014;-72
2023/10/20 12:23:56;;;;;;;6.38;4.43;;;7.30;99.90;;;;;;7373041;19;20047;-72
2023/10/20 12:26:23;;;;;;;3.50;2.45;;;7.40;99.90;;;;;;7370443;19;20018;-73
2023/10/20 12:28:50;;;;;;;6.35;4.53;;;7.30;99.90;;;;;;7377430;19;20010;-73
2023/10/20 12:31:18;;;;;;;1.88;1.33;;;7.30;99.90;;;;;;7372422;19;20022;-67
2023/10/20 12:33:46;;;;;;;1.50;1.00;;;7.30;99.90;;;;;;7376775;19;20025;-71
2023/10/20 12:36:13;;;;;;;12.10;8.45;;;7.30;99.90;;;;;;7373312;19;20125;-66
2023/10/20 12:38:48;;;;;;;5.13;3.85;;;7.30;99.90;;;;;;7369484;19;20090;-66
2023/10/20 12:41:18;;;;;;;4.03;2.38;;;7.30;99.90;;;;;;7370915;19;20021;-72
2023/10/20 12:43:47;;;;;;;8.90;6.35;;;7.30;99.90;;;;;;7371126;19;20033;-73
2023/10/20 12:46:13;;;;;;;5.20;2.70;;;7.30;99.90;;;;;;7370461;19;20502;-66
2023/10/20 12:48:40;;;;;;;10.57;7.80;;;7.30;99.90;;;;;;7370149;19;20097;-66
2023/10/20 12:51:11;;;;;;;2.00;1.50;;;7.30;99.90;;;;;;7372604;19;20446;-66
2023/10/20 12:53:37;;;;;;;2.10;1.77;;;7.30;99.90;;;;;;7367722;19;20048;-66
2023/10/20 12:56:05;;;;;;;4.15;2.78;;;7.30;99.90;;;;;;7371348;19;20849;-66
2023/10/20 12:58:38;;;;;;;5.03;3.10;;;7.30;99.90;;;;;;7372125;19;20023;-67
2023/10/20 13:01:04;;;;;;;4.63;4.18;;;7.30;99.90;;;;;;7367171;19;20015;-68
2023/10/20 13:03:31;;;;;;;8.40;6.00;;;7.20;99.90;;;;;;7368207;19;20474;-67
2023/10/20 13:05:57;;;;;;;1.00;0.90;;;7.20;99.90;;;;;;7369550;19;20097;-73
2023/10/20 13:08:24;;;;;;;2.63;1.80;;;7.20;99.90;;;;;;7369258;19;20478;-67
2023/10/20 13:10:50;;;;;;;11.02;8.18;;;7.20;99.90;;;;;;7370740;19;20078;-72
2023/10/20 13:13:17;;;;;;;1.50;1.08;;;7.20;99.90;;;;;;7367904;19;21401;-73
2023/10/20 13:15:45;;;;;;;7.85;5.20;;;7.20;99.90;;;;;;7370646;19;20050;-67
2023/10/20 13:18:15;;;;;;;2.20;1.45;;;7.30;99.90;;;;;;7370440;19;20018;-68
2023/10/20 13:20:43;;;;;;;3.65;2.78;;;7.20;99.90;;;;;;7372190;19;20097;-67